createdAt,value
2022-11-02T00:01:04.675Z,10.00
2022-11-02T00:03:31.060Z,9.97
2022-11-02T00:05:57.433Z,9.96
2022-11-02T00:08:23.821Z,9.91
2022-11-02T00:10:50.202Z,9.88
2022-11-02T00:13:19.390Z,9.87
2022-11-02T00:15:47.117Z,9.92
2022-11-02T00:18:14.780Z,9.91
2022-11-02T00:20:43.160Z,9.96
2022-11-02T00:23:12.216Z,9.95
2022-11-02T00:25:42.404Z,9.84
2022-11-02T00:28:08.854Z,9.71
2022-11-02T00:30:36.981Z,9.78
2022-11-02T00:33:03.755Z,9.73
2022-11-02T00:35:30.629Z,9.69
2022-11-02T00:37:57.015Z,9.72
2022-11-02T00:40:23.758Z,9.69
2022-11-02T00:42:50.199Z,9.63
2022-11-02T00:45:16.853Z,9.58
2022-11-02T00:47:43.264Z,9.61
2022-11-02T00:50:10.252Z,9.56
2022-11-02T00:52:40.397Z,9.63
2022-11-02T00:55:08.994Z,9.63
2022-11-02T00:57:36.014Z,9.68
2022-11-02T01:00:02.456Z,9.64
2022-11-02T01:02:29.094Z,9.66
2022-11-02T01:04:55.572Z,9.78
2022-11-02T01:07:21.947Z,9.73
2022-11-02T01:09:48.336Z,9.71
2022-11-02T01:12:14.718Z,9.65
2022-11-02T01:14:41.997Z,9.72
2022-11-02T01:17:08.394Z,9.84
2022-11-02T01:19:34.790Z,9.75
2022-11-02T01:22:01.199Z,9.78
2022-11-02T01:24:27.593Z,9.81
2022-11-02T01:26:54.061Z,9.82
2022-11-02T01:29:20.516Z,9.80
2022-11-02T01:31:46.908Z,9.89
2022-11-02T01:34:13.304Z,9.93
2022-11-02T01:36:39.879Z,9.90
2022-11-02T01:39:06.488Z,9.93
2022-11-02T01:41:33.415Z,9.98
2022-11-02T01:44:02.772Z,9.96
2022-11-02T01:46:41.104Z,9.99
2022-11-02T01:49:10.191Z,9.95
2022-11-02T01:51:42.813Z,9.97
2022-11-02T01:54:31.214Z,9.98
2022-11-02T01:57:03.834Z,9.99
2022-11-02T01:59:34.549Z,10.00
2022-11-02T02:02:01.742Z,10.02
2022-11-02T02:04:28.690Z,9.98
2022-11-02T02:06:57.940Z,9.93
2022-11-02T02:09:24.860Z,9.93
2022-11-02T02:11:51.251Z,9.97
2022-11-02T02:14:19.655Z,10.03
2022-11-02T02:17:36.788Z,10.00
2022-11-02T02:20:52.529Z,10.00
2022-11-02T02:23:39.646Z,9.98
2022-11-02T02:26:09.073Z,10.01
2022-11-02T02:28:48.778Z,10.01
2022-11-02T02:31:35.292Z,10.01
2022-11-02T02:34:16.258Z,9.97
2022-11-02T02:37:26.655Z,10.03
2022-11-02T02:40:02.664Z,10.05
2022-11-02T02:42:37.691Z,10.10
2022-11-02T02:45:13.705Z,10.07
2022-11-02T02:47:50.683Z,9.98
2022-11-02T02:50:21.697Z,10.04
2022-11-02T02:52:51.490Z,9.98
2022-11-02T02:55:23.073Z,10.00
2022-11-02T02:57:52.986Z,10.01
2022-11-02T03:00:19.408Z,10.06
2022-11-02T03:03:00.825Z,10.00
2022-11-02T03:05:33.854Z,9.97
2022-11-02T03:08:05.680Z,9.90
2022-11-02T03:10:41.359Z,10.02
2022-11-02T03:13:18.332Z,9.95
2022-11-02T03:15:49.234Z,10.00
2022-11-02T03:18:34.235Z,9.96
2022-11-02T03:21:14.566Z,10.02
2022-11-02T03:23:50.420Z,9.94
2022-11-02T03:26:35.325Z,9.90
2022-11-02T03:29:16.650Z,9.98
2022-11-02T03:31:54.871Z,9.86
2022-11-02T03:34:28.517Z,9.81
2022-11-02T03:39:46.146Z,9.86
2022-11-02T03:42:18.853Z,9.78
2022-11-02T03:44:51.960Z,9.69
2022-11-02T03:47:20.699Z,9.74
2022-11-02T03:49:50.260Z,9.68
2022-11-02T03:52:25.829Z,9.86
2022-11-02T03:55:07.901Z,9.88
2022-11-02T03:57:50.259Z,9.84
2022-11-02T04:00:25.044Z,9.85
2022-11-02T04:02:59.811Z,9.81
2022-11-02T04:05:30.963Z,9.81
2022-11-02T04:08:23.233Z,9.84
2022-11-02T04:11:15.510Z,9.82
2022-11-02T04:14:02.837Z,9.91
2022-11-02T04:16:34.107Z,9.89
2022-11-02T04:19:22.442Z,9.80
2022-11-02T04:22:09.979Z,9.87
2022-11-02T04:24:57.484Z,9.81
2022-11-02T04:27:24.261Z,9.87
2022-11-02T04:29:52.031Z,9.84
2022-11-02T04:32:39.087Z,9.90
2022-11-02T04:35:09.967Z,9.89
2022-11-02T04:38:01.463Z,9.90
2022-11-02T04:40:32.265Z,9.88
2022-11-02T04:42:58.790Z,9.92
2022-11-02T04:45:25.932Z,9.89
2022-11-02T04:47:53.500Z,9.79
2022-11-02T04:50:20.962Z,9.83
2022-11-02T04:52:55.603Z,9.91
2022-11-02T04:55:22.075Z,9.90
2022-11-02T04:57:49.248Z,9.82
2022-11-02T05:00:16.447Z,9.87
2022-11-02T05:02:42.995Z,9.89
2022-11-02T05:05:12.419Z,9.90
2022-11-02T05:07:39.088Z,9.91
2022-11-02T05:10:06.145Z,9.90
2022-11-02T05:12:34.088Z,9.88
2022-11-02T05:15:00.563Z,9.85
2022-11-02T05:17:27.073Z,9.89
2022-11-02T05:19:53.606Z,9.86
2022-11-02T05:22:21.410Z,9.83
2022-11-02T05:24:47.815Z,9.88
2022-11-02T05:27:14.422Z,9.87
2022-11-02T05:29:42.319Z,9.82
2022-11-02T05:32:08.794Z,9.84
2022-11-02T05:34:35.506Z,9.81
2022-11-02T05:37:01.939Z,9.81
2022-11-02T05:39:28.387Z,9.74
2022-11-02T05:41:55.635Z,9.79
2022-11-02T05:44:22.084Z,9.80
2022-11-02T05:46:48.507Z,9.81
2022-11-02T05:49:14.885Z,9.80
2022-11-02T05:51:41.311Z,9.82
2022-11-02T05:54:07.737Z,9.79
2022-11-02T05:56:35.269Z,9.84
2022-11-02T05:59:01.724Z,9.85
2022-11-02T06:01:28.154Z,9.87
2022-11-02T06:03:54.743Z,9.83
2022-11-02T06:06:21.439Z,9.83
2022-11-02T06:08:47.999Z,9.82
2022-11-02T06:11:15.049Z,9.84
2022-11-02T06:13:42.327Z,9.89
2022-11-02T06:16:10.543Z,9.88
2022-11-02T06:18:38.310Z,9.90
2022-11-02T06:21:05.361Z,9.92
2022-11-02T06:23:31.885Z,9.96
2022-11-02T06:25:59.714Z,9.91
2022-11-02T06:28:26.616Z,9.92
2022-11-02T06:30:53.902Z,9.87
2022-11-02T06:33:20.761Z,9.88
2022-11-02T06:35:49.027Z,9.94
2022-11-02T06:38:16.303Z,9.96
2022-11-02T06:40:42.922Z,9.98
2022-11-02T06:43:17.975Z,9.93
2022-11-02T06:45:44.634Z,9.88
2022-11-02T06:48:11.058Z,9.86
2022-11-02T06:50:37.496Z,9.94
2022-11-02T06:53:04.371Z,9.95
2022-11-02T06:55:30.990Z,9.96
2022-11-02T06:57:57.409Z,9.98
2022-11-02T07:00:24.258Z,10.01
2022-11-02T07:03:09.353Z,10.07
2022-11-02T07:05:36.165Z,10.12
2022-11-02T07:08:02.906Z,10.14
2022-11-02T07:10:29.566Z,10.15
2022-11-02T07:12:57.361Z,10.22
2022-11-02T07:15:25.406Z,10.21
2022-11-02T07:17:52.160Z,10.30
2022-11-02T07:20:18.606Z,10.33
2022-11-02T07:22:55.876Z,10.46
2022-11-02T07:25:22.889Z,10.45
2022-11-02T07:27:49.436Z,10.59
2022-11-02T07:30:16.313Z,10.63
2022-11-02T07:32:44.833Z,10.73
2022-11-02T07:35:15.240Z,10.75
2022-11-02T07:37:41.708Z,10.80
2022-11-02T07:40:10.381Z,10.93
2022-11-02T07:42:36.777Z,11.12
2022-11-02T07:45:05.922Z,11.07
2022-11-02T07:47:33.213Z,11.15
2022-11-02T07:50:00.722Z,11.15
2022-11-02T07:52:27.114Z,11.23
2022-11-02T07:54:53.675Z,11.27
2022-11-02T07:57:20.073Z,11.32
2022-11-02T07:59:46.453Z,11.35
2022-11-02T08:02:13.690Z,11.45
2022-11-02T08:04:43.861Z,11.52
2022-11-02T08:07:11.562Z,11.64
2022-11-02T08:09:37.961Z,11.62
2022-11-02T08:12:04.409Z,11.72
2022-11-02T08:14:30.834Z,11.74
2022-11-02T08:16:57.241Z,11.84
2022-11-02T08:19:23.625Z,11.97
2022-11-02T08:21:50.228Z,11.91
2022-11-02T08:24:16.612Z,11.95
2022-11-02T08:26:45.329Z,11.92
2022-11-02T08:29:13.131Z,11.97
2022-11-02T08:31:39.525Z,12.08
2022-11-02T08:34:06.268Z,12.02
2022-11-02T08:36:35.414Z,12.15
2022-11-02T08:39:01.894Z,12.18
2022-11-02T08:41:28.317Z,12.22
2022-11-02T08:43:54.691Z,12.18
2022-11-02T08:46:21.084Z,12.31
2022-11-02T08:48:47.521Z,12.24
2022-11-02T08:51:13.936Z,12.36
2022-11-02T08:53:40.848Z,12.45
2022-11-02T08:56:07.489Z,12.48
2022-11-02T08:58:33.893Z,12.56
2022-11-02T09:01:00.291Z,12.61
2022-11-02T09:03:28.179Z,12.63
2022-11-02T09:05:59.893Z,12.73
2022-11-02T09:08:27.838Z,12.83
2022-11-02T09:10:59.511Z,13.07
2022-11-02T09:13:25.988Z,13.10
2022-11-02T09:15:55.500Z,13.08
2022-11-02T09:18:22.850Z,13.15
2022-11-02T09:20:50.065Z,13.22
2022-11-02T09:23:17.671Z,13.33
2022-11-02T09:25:44.720Z,13.39
2022-11-02T09:28:11.505Z,13.44
2022-11-02T09:30:38.056Z,13.45
2022-11-02T09:33:06.195Z,13.47
2022-11-02T09:35:38.475Z,13.64
2022-11-02T09:38:05.146Z,13.65
2022-11-02T09:40:44.826Z,13.68
2022-11-02T09:43:42.450Z,13.67
2022-11-02T09:46:31.894Z,13.69
2022-11-02T09:49:03.262Z,13.78
2022-11-02T09:51:37.135Z,13.73
2022-11-02T09:54:22.272Z,13.91
2022-11-02T09:56:50.721Z,13.93
2022-11-02T09:59:22.804Z,13.95
2022-11-02T10:02:02.868Z,14.11
2022-11-02T10:04:44.227Z,14.17
2022-11-02T10:07:34.183Z,14.22
2022-11-02T10:10:19.921Z,14.23
2022-11-02T10:13:18.490Z,14.42
2022-11-02T10:16:22.130Z,14.43
2022-11-02T10:18:51.915Z,14.52
2022-11-02T10:21:27.362Z,14.52
2022-11-02T10:23:55.540Z,14.63
2022-11-02T10:26:30.822Z,14.93
2022-11-02T10:29:01.667Z,14.85
2022-11-02T10:31:34.321Z,15.05
2022-11-02T10:34:29.041Z,15.28
2022-11-02T10:37:24.191Z,15.21
2022-11-02T10:40:07.670Z,15.17
2022-11-02T10:42:58.697Z,15.16
2022-11-02T10:45:40.195Z,15.19
2022-11-02T10:48:27.969Z,15.17
2022-11-02T10:51:14.591Z,15.27
2022-11-02T10:53:46.193Z,15.31
2022-11-02T10:56:16.748Z,15.38
2022-11-02T10:59:15.500Z,15.58
2022-11-02T11:02:06.957Z,15.46
2022-11-02T11:04:35.921Z,15.57
2022-11-02T11:07:13.086Z,15.91
2022-11-02T11:09:48.286Z,15.63
2022-11-02T11:12:22.468Z,15.57
2022-11-02T11:20:34.488Z,15.69
2022-11-02T11:23:10.339Z,15.74
2022-11-02T11:25:36.765Z,15.62
2022-11-02T11:28:22.559Z,15.52
2022-11-02T11:31:02.628Z,15.44
2022-11-02T11:33:32.787Z,15.45
2022-11-02T11:36:00.014Z,15.35
2022-11-02T11:38:27.312Z,15.41
2022-11-02T11:40:59.215Z,15.51
2022-11-02T11:43:30.551Z,15.70
2022-11-02T11:46:05.922Z,15.53
2022-11-02T11:48:47.716Z,15.48
2022-11-02T11:51:35.277Z,15.35
2022-11-02T11:54:24.255Z,15.43
2022-11-02T11:56:52.821Z,15.45
2022-11-02T11:59:26.081Z,15.53
2022-11-02T12:01:57.264Z,15.51
2022-11-02T12:04:40.613Z,15.64
2022-11-02T12:07:28.965Z,15.64
2022-11-02T12:10:07.800Z,15.71
2022-11-02T12:12:50.277Z,15.90
2022-11-02T12:15:50.735Z,15.99
2022-11-02T12:18:44.698Z,15.84
2022-11-02T12:21:29.858Z,15.96
2022-11-02T12:24:10.114Z,16.06
2022-11-02T12:27:11.691Z,16.09
2022-11-02T12:30:00.656Z,16.15
2022-11-02T12:32:45.667Z,16.17
2022-11-02T12:35:35.380Z,16.17
2022-11-02T12:38:35.787Z,16.17
2022-11-02T12:41:07.095Z,16.13
2022-11-02T12:43:39.016Z,16.33
2022-11-02T12:46:39.714Z,16.36
2022-11-02T12:49:41.546Z,16.21
2022-11-02T12:52:40.878Z,16.25
2022-11-02T12:55:17.752Z,16.05
2022-11-02T12:57:45.865Z,16.14
2022-11-02T13:00:22.094Z,16.09
2022-11-02T13:03:04.382Z,16.15
2022-11-02T13:05:46.926Z,16.24
2022-11-02T13:08:25.351Z,15.94
2022-11-02T13:10:57.219Z,16.14
2022-11-02T13:13:43.945Z,16.12
2022-11-02T13:16:11.566Z,16.14
2022-11-02T13:18:45.665Z,16.23
2022-11-02T13:21:15.995Z,16.33
2022-11-02T13:23:56.696Z,16.33
2022-11-02T13:26:34.197Z,16.29
2022-11-02T13:29:07.826Z,16.17
2022-11-02T13:31:50.550Z,16.10
2022-11-02T13:34:31.514Z,16.13
2022-11-02T13:36:58.424Z,16.21
2022-11-02T13:39:37.741Z,16.14
2022-11-02T13:42:36.678Z,16.18
2022-11-02T13:45:29.528Z,16.04
2022-11-02T13:48:18.836Z,15.93
2022-11-02T13:50:56.663Z,15.97
2022-11-02T13:53:34.497Z,15.98
2022-11-02T13:56:09.496Z,15.91
2022-11-02T13:58:41.267Z,15.94
2022-11-02T14:01:11.528Z,15.89
2022-11-02T14:04:01.953Z,15.80
2022-11-02T14:06:31.726Z,15.69
2022-11-02T14:09:02.880Z,15.77
2022-11-02T14:11:41.465Z,15.63
2022-11-02T14:14:10.844Z,15.69
2022-11-02T14:16:43.721Z,15.65
2022-11-02T14:19:19.227Z,15.72
2022-11-02T14:22:08.908Z,15.71
2022-11-02T14:24:36.100Z,15.74
2022-11-02T14:27:27.673Z,15.74
2022-11-02T14:29:56.918Z,15.52
2022-11-02T14:32:36.864Z,15.55
2022-11-02T14:35:40.187Z,15.59
2022-11-02T14:38:25.451Z,15.62
2022-11-02T14:41:23.632Z,15.52
2022-11-02T14:44:08.537Z,15.55
2022-11-02T14:46:56.521Z,15.42
2022-11-02T14:49:27.874Z,15.25
2022-11-02T14:52:03.980Z,15.14
2022-11-02T14:54:37.538Z,15.26
2022-11-02T14:57:21.600Z,15.15
2022-11-02T14:59:52.229Z,15.11
2022-11-02T15:02:40.309Z,15.29
2022-11-02T15:05:22.850Z,15.21
2022-11-02T15:07:53.878Z,15.06
2022-11-02T15:10:20.199Z,15.11
2022-11-02T15:12:48.384Z,15.24
2022-11-02T15:15:29.585Z,15.49
2022-11-02T15:17:55.893Z,15.15
2022-11-02T15:20:31.233Z,14.96
2022-11-02T15:23:26.664Z,14.95
2022-11-02T15:25:58.348Z,14.74
2022-11-02T15:28:28.352Z,14.69
2022-11-02T15:31:03.835Z,14.66
2022-11-02T15:33:39.104Z,14.63
2022-11-02T15:36:15.635Z,14.57
2022-11-02T15:38:48.026Z,14.52
2022-11-02T15:41:24.984Z,14.45
2022-11-02T15:44:12.004Z,14.42
2022-11-02T15:46:50.666Z,14.35
2022-11-02T15:49:31.681Z,14.44
2022-11-02T15:52:05.777Z,14.24
2022-11-02T15:55:09.646Z,14.23
2022-11-02T15:58:00.874Z,14.24
2022-11-02T16:00:30.177Z,14.07
2022-11-02T16:03:02.713Z,14.13
2022-11-02T16:05:33.336Z,14.14
2022-11-02T16:08:15.119Z,14.13
2022-11-02T16:10:41.515Z,14.11
2022-11-02T16:13:07.947Z,13.94
2022-11-02T16:15:34.538Z,13.91
2022-11-02T16:18:01.013Z,13.81
2022-11-02T16:20:34.574Z,13.87
2022-11-02T16:23:04.132Z,13.88
2022-11-02T16:25:53.061Z,13.62
2022-11-02T16:28:26.636Z,13.78
2022-11-02T16:31:19.622Z,13.73
2022-11-02T16:33:53.853Z,13.65
2022-11-02T16:36:22.556Z,13.56
2022-11-02T16:39:17.775Z,13.57
2022-11-02T16:41:50.074Z,13.47
2022-11-02T16:44:26.712Z,13.45
2022-11-02T16:46:57.454Z,13.32
2022-11-02T16:49:26.481Z,13.15
2022-11-02T16:52:06.558Z,13.18
2022-11-02T16:54:43.404Z,13.14
2022-11-02T16:57:18.471Z,13.10
2022-11-02T16:59:55.582Z,13.14
2022-11-02T17:02:34.933Z,13.17
2022-11-02T17:05:06.022Z,13.11
2022-11-02T17:07:41.941Z,13.03
2022-11-02T17:10:18.205Z,13.03
2022-11-02T17:12:45.278Z,13.08
2022-11-02T17:15:19.197Z,12.99
2022-11-02T17:17:46.026Z,13.03
2022-11-02T17:20:15.070Z,12.96
2022-11-02T17:22:59.507Z,12.88
2022-11-02T17:25:33.236Z,12.90
2022-11-02T17:28:02.141Z,12.87
2022-11-02T17:30:34.770Z,12.94
2022-11-02T17:33:23.762Z,12.87
2022-11-02T17:35:52.447Z,12.91
2022-11-02T17:38:22.721Z,13.29
2022-11-02T17:40:52.133Z,12.99
2022-11-02T17:43:23.406Z,12.96
2022-11-02T17:46:00.110Z,12.75
2022-11-02T17:48:28.972Z,12.71
2022-11-02T17:50:57.542Z,12.67
2022-11-02T17:53:24.143Z,12.58
2022-11-02T17:55:50.625Z,12.48
2022-11-02T17:58:17.430Z,12.56
2022-11-02T18:00:43.980Z,12.48
2022-11-02T18:03:15.775Z,12.41
2022-11-02T18:05:45.087Z,12.33
2022-11-02T18:08:15.020Z,12.34
2022-11-02T18:10:43.874Z,12.24
2022-11-02T18:13:19.548Z,12.27
2022-11-02T18:15:46.970Z,12.35
2022-11-02T18:18:13.494Z,12.51
2022-11-02T18:20:42.017Z,12.24
2022-11-02T18:23:15.081Z,12.20
2022-11-02T18:25:42.505Z,12.14
2022-11-02T18:28:09.239Z,12.11
2022-11-02T18:30:35.653Z,12.09
2022-11-02T18:33:02.779Z,12.10
2022-11-02T18:35:29.458Z,12.08
2022-11-02T18:37:55.842Z,12.15
2022-11-02T18:40:22.274Z,12.03
2022-11-02T18:42:48.655Z,11.91
2022-11-02T18:45:15.871Z,11.90
2022-11-02T18:47:42.506Z,11.86
2022-11-02T18:50:11.156Z,11.79
2022-11-02T18:52:37.582Z,11.73
2022-11-02T18:55:05.312Z,11.64
2022-11-02T18:57:32.794Z,11.64
2022-11-02T19:00:00.631Z,11.46
2022-11-02T19:02:27.127Z,11.36
2022-11-02T19:04:53.570Z,11.33
2022-11-02T19:07:38.731Z,11.26
2022-11-02T19:10:05.609Z,11.10
2022-11-02T19:12:32.593Z,11.05
2022-11-02T19:14:59.024Z,10.92
2022-11-02T19:17:26.693Z,10.77
2022-11-02T19:19:53.754Z,10.70
2022-11-02T19:22:22.653Z,10.67
2022-11-02T19:24:49.696Z,10.70
2022-11-02T19:27:18.862Z,10.60
2022-11-02T19:29:45.583Z,10.57
2022-11-02T19:32:12.332Z,10.39
2022-11-02T19:34:38.756Z,10.44
2022-11-02T19:37:07.056Z,10.42
2022-11-02T19:39:33.521Z,10.45
2022-11-02T19:42:00.154Z,10.39
2022-11-02T19:44:26.570Z,10.36
2022-11-02T19:46:52.995Z,10.35
2022-11-02T19:49:19.375Z,10.28
2022-11-02T19:51:45.781Z,10.29
2022-11-02T19:54:12.271Z,10.10
2022-11-02T19:56:38.777Z,10.06
2022-11-02T19:59:06.074Z,9.96
2022-11-02T20:01:35.148Z,9.99
2022-11-02T20:04:02.284Z,9.88
2022-11-02T20:06:33.297Z,9.79
2022-11-02T20:09:01.705Z,9.76
2022-11-02T20:11:28.820Z,9.67
2022-11-02T20:14:00.115Z,9.66
2022-11-02T20:16:27.331Z,9.66
2022-11-02T20:18:54.950Z,9.63
2022-11-02T20:21:31.576Z,9.54
2022-11-02T20:24:00.497Z,9.46
2022-11-02T20:26:32.802Z,9.54
2022-11-02T20:29:00.273Z,9.43
2022-11-02T20:31:29.823Z,9.43
2022-11-02T20:33:56.237Z,9.43
2022-11-02T20:36:22.657Z,9.37
2022-11-02T20:38:51.816Z,9.36
2022-11-02T20:41:20.687Z,9.25
2022-11-02T20:43:48.649Z,9.25
2022-11-02T20:46:38.285Z,9.11
2022-11-02T20:49:21.568Z,9.19
2022-11-02T20:51:53.993Z,9.06
2022-11-02T20:54:22.192Z,9.10
2022-11-02T20:56:49.500Z,9.07
2022-11-02T20:59:15.938Z,9.07
2022-11-02T21:01:42.432Z,8.95
2022-11-02T21:04:08.976Z,8.86
2022-11-02T21:06:35.398Z,8.89
2022-11-02T21:09:07.666Z,8.94
2022-11-02T21:11:55.875Z,8.83
2022-11-02T21:14:23.405Z,8.81
2022-11-02T21:16:49.858Z,8.80
2022-11-02T21:19:16.252Z,8.74
2022-11-02T21:21:42.624Z,8.64
2022-11-02T21:24:09.845Z,8.58
2022-11-02T21:26:36.242Z,8.54
2022-11-02T21:29:02.602Z,8.60
2022-11-02T21:31:28.996Z,8.54
2022-11-02T21:33:55.392Z,8.54
2022-11-02T21:36:21.780Z,8.58
2022-11-02T21:38:51.015Z,8.50
2022-11-02T21:41:21.017Z,8.44
2022-11-02T21:43:47.628Z,8.50
2022-11-02T21:46:14.029Z,8.32
2022-11-02T21:48:40.435Z,8.22
2022-11-02T21:51:10.477Z,8.40
2022-11-02T21:53:39.304Z,8.30
2022-11-02T21:56:14.556Z,8.24
2022-11-02T21:58:44.839Z,8.18
2022-11-02T22:01:37.909Z,8.14
2022-11-02T22:04:05.892Z,8.17
2022-11-02T22:06:32.684Z,8.09
2022-11-02T22:09:00.402Z,8.00
2022-11-02T22:11:27.526Z,8.03
2022-11-02T22:13:55.820Z,8.07
2022-11-02T22:16:28.063Z,8.04
2022-11-02T22:18:56.581Z,8.13
2022-11-02T22:21:23.892Z,8.21
2022-11-02T22:23:50.648Z,8.21
2022-11-02T22:26:22.266Z,8.25
2022-11-02T22:28:49.115Z,8.24
2022-11-02T22:31:20.502Z,8.21
2022-11-02T22:33:48.860Z,8.15
2022-11-02T22:36:17.028Z,8.10
2022-11-02T22:38:53.651Z,8.00
2022-11-02T22:41:31.404Z,8.07
2022-11-02T22:44:01.592Z,8.00
2022-11-02T22:46:29.590Z,8.10
2022-11-02T22:48:57.721Z,8.15
2022-11-02T22:51:26.962Z,8.18
2022-11-02T22:53:54.186Z,8.23
2022-11-02T22:56:22.282Z,8.28
2022-11-02T22:58:49.631Z,8.13
2022-11-02T23:01:24.759Z,8.17
2022-11-02T23:03:51.856Z,8.20
2022-11-02T23:06:22.804Z,8.14
2022-11-02T23:08:51.582Z,8.19
2022-11-02T23:11:21.333Z,8.15
2022-11-02T23:13:54.426Z,8.18
2022-11-02T23:16:26.034Z,8.04
2022-11-02T23:19:31.797Z,8.01
2022-11-02T23:22:18.450Z,7.86
2022-11-02T23:25:11.755Z,7.95
2022-11-02T23:28:02.003Z,7.97
2022-11-02T23:30:50.355Z,8.00
2022-11-02T23:33:16.793Z,8.04
2022-11-02T23:36:02.031Z,8.01
2022-11-02T23:38:47.546Z,7.94
2022-11-02T23:41:14.060Z,7.96
2022-11-02T23:43:40.444Z,7.95
2022-11-02T23:46:06.826Z,7.94
2022-11-02T23:48:33.313Z,8.01
2022-11-02T23:51:18.826Z,7.99
2022-11-02T23:54:03.775Z,7.90
2022-11-02T23:56:45.855Z,7.71
2022-11-02T23:59:13.713Z,7.66
